createdAt,value
2023-12-13T00:01:32.340Z,10.02
2023-12-13T00:03:59.590Z,10.00
2023-12-13T00:06:27.009Z,10.05
2023-12-13T00:08:54.229Z,10.08
2023-12-13T00:11:21.356Z,10.04
2023-12-13T00:13:48.537Z,10.05
2023-12-13T00:16:16.408Z,9.98
2023-12-13T00:18:43.718Z,9.93
2023-12-13T00:21:10.979Z,10.07
2023-12-13T00:23:38.140Z,10.07
2023-12-13T00:26:05.913Z,10.11
2023-12-13T00:28:35.016Z,10.05
2023-12-13T00:31:02.171Z,10.06
2023-12-13T00:33:29.536Z,9.98
2023-12-13T00:35:56.941Z,9.98
2023-12-13T00:38:24.107Z,9.93
2023-12-13T00:40:52.180Z,10.04
2023-12-13T00:43:19.432Z,10.09
2023-12-13T00:45:46.588Z,10.09
2023-12-13T00:48:15.022Z,10.14
2023-12-13T00:50:42.140Z,10.11
2023-12-13T00:53:09.292Z,10.11
2023-12-13T00:55:36.478Z,10.14
2023-12-13T00:58:03.955Z,10.12
2023-12-13T01:00:31.245Z,10.17
2023-12-13T01:02:58.430Z,10.22
2023-12-13T01:05:25.671Z,10.20
2023-12-13T01:07:52.976Z,10.27
2023-12-13T01:10:21.345Z,10.24
2023-12-13T01:12:48.630Z,10.17
2023-12-13T01:15:15.830Z,10.13
2023-12-13T01:17:42.966Z,10.18
2023-12-13T01:20:13.269Z,10.22
2023-12-13T01:22:42.910Z,10.20
2023-12-13T01:25:10.205Z,10.26
2023-12-13T01:27:37.413Z,10.24
2023-12-13T01:30:05.099Z,10.20
2023-12-13T01:32:32.334Z,10.25
2023-12-13T01:34:59.569Z,10.27
2023-12-13T01:37:27.525Z,10.27
2023-12-13T01:39:58.107Z,10.26
2023-12-13T01:42:25.248Z,10.30
2023-12-13T01:44:52.498Z,10.29
2023-12-13T01:47:19.768Z,10.23
2023-12-13T01:49:46.971Z,10.14
2023-12-13T01:52:15.805Z,10.22
2023-12-13T01:54:43.409Z,10.27
2023-12-13T01:57:11.284Z,10.27
2023-12-13T01:59:38.659Z,10.21
2023-12-13T02:02:06.436Z,10.26
2023-12-13T02:04:36.318Z,10.26
2023-12-13T02:07:03.467Z,10.20
2023-12-13T02:09:30.511Z,10.13
2023-12-13T02:11:58.608Z,10.09
2023-12-13T02:14:26.362Z,10.19
2023-12-13T02:16:54.437Z,10.15
2023-12-13T02:19:21.647Z,10.17
2023-12-13T02:21:48.988Z,10.20
2023-12-13T02:24:16.582Z,10.16
2023-12-13T02:26:44.766Z,10.19
2023-12-13T02:29:12.973Z,10.18
2023-12-13T02:31:41.326Z,10.22
2023-12-13T02:34:08.563Z,10.21
2023-12-13T02:36:36.034Z,10.21
2023-12-13T02:39:06.074Z,10.19
2023-12-13T02:41:33.651Z,10.14
2023-12-13T02:44:01.692Z,10.17
2023-12-13T02:46:29.914Z,10.23
2023-12-13T02:49:00.133Z,10.17
2023-12-13T02:51:27.446Z,10.21
2023-12-13T02:53:54.719Z,10.18
2023-12-13T02:56:22.190Z,10.11
2023-12-13T02:58:49.438Z,10.09
2023-12-13T03:01:16.835Z,10.08
2023-12-13T03:03:44.082Z,10.07
2023-12-13T03:06:11.337Z,10.18
2023-12-13T03:08:38.456Z,10.16
2023-12-13T03:11:06.005Z,10.09
2023-12-13T03:13:33.247Z,10.05
2023-12-13T03:16:00.352Z,10.10
2023-12-13T03:18:27.471Z,10.12
2023-12-13T03:20:55.389Z,10.09
2023-12-13T03:23:22.501Z,10.11
2023-12-13T03:25:49.840Z,10.13
2023-12-13T03:28:16.986Z,10.16
2023-12-13T03:30:44.516Z,10.11
2023-12-13T03:33:11.709Z,10.05
2023-12-13T03:35:38.875Z,10.10
2023-12-13T03:38:07.568Z,10.16
2023-12-13T03:40:34.765Z,10.07
2023-12-13T03:43:03.009Z,10.08
2023-12-13T03:45:30.161Z,10.05
2023-12-13T03:47:57.598Z,10.03
2023-12-13T03:50:24.943Z,10.00
2023-12-13T03:52:52.524Z,10.08
2023-12-13T03:55:19.888Z,10.05
2023-12-13T03:57:47.127Z,10.03
2023-12-13T04:00:14.468Z,10.08
2023-12-13T04:02:41.558Z,10.03
2023-12-13T04:05:09.690Z,10.04
2023-12-13T04:07:37.351Z,10.09
2023-12-13T04:10:06.439Z,10.05
2023-12-13T04:12:33.872Z,10.07
2023-12-13T04:15:01.004Z,10.02
2023-12-13T04:17:28.117Z,10.03
2023-12-13T04:19:58.536Z,10.07
2023-12-13T04:22:25.892Z,10.04
2023-12-13T04:24:53.220Z,10.03
2023-12-13T04:27:20.382Z,10.08
2023-12-13T04:29:47.469Z,10.13
2023-12-13T04:32:14.579Z,10.12
2023-12-13T04:34:41.729Z,10.18
2023-12-13T04:37:09.364Z,10.20
2023-12-13T04:39:39.200Z,10.18
2023-12-13T04:42:06.581Z,10.17
2023-12-13T04:44:34.291Z,10.16
2023-12-13T04:47:04.434Z,10.10
2023-12-13T04:49:32.497Z,10.04
2023-12-13T04:51:59.929Z,10.00
2023-12-13T04:54:27.088Z,10.04
2023-12-13T04:56:54.605Z,9.90
2023-12-13T04:59:22.349Z,9.96
2023-12-13T05:01:51.108Z,9.95
2023-12-13T05:04:18.460Z,9.97
2023-12-13T05:06:45.783Z,9.98
2023-12-13T05:09:12.973Z,10.01
2023-12-13T05:11:41.258Z,9.98
2023-12-13T05:14:08.533Z,10.01
2023-12-13T05:16:35.940Z,10.03
2023-12-13T05:19:04.062Z,10.04
2023-12-13T05:21:31.223Z,10.07
2023-12-13T05:23:58.458Z,10.02
2023-12-13T05:26:25.731Z,10.09
2023-12-13T05:28:53.091Z,10.11
2023-12-13T05:31:21.603Z,10.12
2023-12-13T05:33:50.220Z,10.11
2023-12-13T05:36:17.971Z,10.09
2023-12-13T05:38:45.626Z,10.13
2023-12-13T05:41:12.987Z,10.17
2023-12-13T05:43:40.405Z,10.09
2023-12-13T05:46:09.008Z,10.13
2023-12-13T05:48:36.537Z,10.12
2023-12-13T05:51:03.929Z,10.15
2023-12-13T05:53:32.670Z,10.16
2023-12-13T05:56:01.652Z,10.13
2023-12-13T05:58:30.116Z,10.09
2023-12-13T06:00:58.096Z,10.05
2023-12-13T06:03:25.386Z,10.04
2023-12-13T06:05:52.698Z,10.09
2023-12-13T06:08:19.975Z,10.14
2023-12-13T06:10:47.127Z,10.16
2023-12-13T06:13:14.862Z,10.08
2023-12-13T06:15:42.069Z,10.13
2023-12-13T06:18:09.366Z,10.21
2023-12-13T06:20:36.575Z,10.20
2023-12-13T06:23:03.698Z,10.23
2023-12-13T06:25:30.855Z,10.25
2023-12-13T06:27:58.866Z,10.20
2023-12-13T06:30:26.062Z,10.21
2023-12-13T06:32:53.260Z,10.28
2023-12-13T06:35:20.469Z,10.25
2023-12-13T06:37:47.629Z,10.29
2023-12-13T06:40:16.047Z,10.28
2023-12-13T06:42:43.337Z,10.30
2023-12-13T06:45:10.816Z,10.30
2023-12-13T06:47:38.223Z,10.32
2023-12-13T06:50:06.490Z,10.26
2023-12-13T06:52:33.975Z,10.28
2023-12-13T06:55:01.237Z,10.29
2023-12-13T06:57:28.298Z,10.34
2023-12-13T06:59:55.387Z,10.39
2023-12-13T07:02:23.200Z,10.44
2023-12-13T07:04:50.453Z,10.44
2023-12-13T07:07:17.624Z,10.45
2023-12-13T07:09:46.057Z,10.44
2023-12-13T07:12:13.294Z,10.50
2023-12-13T07:14:40.671Z,10.48
2023-12-13T07:17:07.883Z,10.47
2023-12-13T07:19:35.480Z,10.50
2023-12-13T07:22:02.645Z,10.51
2023-12-13T07:24:29.714Z,10.51
2023-12-13T07:26:56.812Z,10.50
2023-12-13T07:29:23.965Z,10.55
2023-12-13T07:31:51.762Z,10.55
2023-12-13T07:34:19.519Z,10.58
2023-12-13T07:36:49.639Z,10.64
2023-12-13T07:39:17.238Z,10.65
2023-12-13T07:41:44.979Z,10.64
2023-12-13T07:44:12.152Z,10.61
2023-12-13T07:46:42.362Z,10.62
2023-12-13T07:49:09.728Z,10.55
2023-12-13T07:51:37.155Z,10.69
2023-12-13T07:54:04.388Z,10.67
2023-12-13T07:56:32.787Z,10.67
2023-12-13T07:59:01.154Z,10.65
2023-12-13T08:01:28.790Z,10.64
2023-12-13T08:03:57.366Z,10.64
2023-12-13T08:06:25.004Z,10.68
2023-12-13T08:08:52.904Z,10.67
2023-12-13T08:11:20.184Z,10.69
2023-12-13T08:13:47.406Z,10.74
2023-12-13T08:16:14.867Z,10.71
2023-12-13T08:18:42.340Z,10.74
2023-12-13T08:21:09.795Z,10.71
2023-12-13T08:23:37.034Z,10.75
2023-12-13T08:26:04.513Z,10.74
2023-12-13T08:28:31.763Z,10.80
2023-12-13T08:31:08.860Z,10.82
2023-12-13T08:33:45.180Z,10.83
2023-12-13T08:36:13.303Z,10.85
2023-12-13T08:38:41.091Z,10.87
2023-12-13T08:41:09.245Z,10.84
2023-12-13T08:43:36.834Z,10.84
2023-12-13T08:46:04.260Z,10.80
2023-12-13T08:48:32.135Z,10.86
2023-12-13T08:51:00.092Z,10.84
2023-12-13T08:53:27.216Z,10.82
2023-12-13T08:55:54.517Z,10.81
2023-12-13T08:58:22.255Z,10.85
2023-12-13T09:00:49.762Z,10.89
2023-12-13T09:03:17.151Z,10.93
2023-12-13T09:05:45.199Z,10.91
2023-12-13T09:08:12.341Z,10.95
2023-12-13T09:10:39.542Z,10.96
2023-12-13T09:13:06.848Z,11.05
2023-12-13T09:15:34.334Z,11.20
2023-12-13T09:18:02.073Z,11.31
2023-12-13T09:20:29.417Z,11.31
2023-12-13T09:22:56.603Z,11.40
2023-12-13T09:25:23.810Z,11.44
2023-12-13T09:27:51.246Z,11.43
2023-12-13T09:30:18.548Z,11.51
2023-12-13T09:32:47.956Z,11.50
2023-12-13T09:35:16.151Z,11.54
2023-12-13T09:37:43.368Z,11.51
2023-12-13T09:40:17.104Z,11.53
2023-12-13T09:42:48.615Z,11.59
2023-12-13T09:45:22.097Z,11.61
2023-12-13T09:47:50.566Z,11.60
2023-12-13T09:50:19.404Z,11.59
2023-12-13T09:52:47.863Z,11.60
2023-12-13T09:55:16.915Z,11.54
2023-12-13T09:57:44.289Z,11.53
2023-12-13T10:00:15.258Z,11.51
2023-12-13T10:02:42.491Z,11.52
2023-12-13T10:05:13.103Z,11.53
2023-12-13T10:07:41.477Z,11.62
2023-12-13T10:10:09.079Z,11.66
2023-12-13T10:12:38.495Z,11.68
2023-12-13T10:15:13.298Z,11.76
2023-12-13T10:17:42.395Z,11.69
2023-12-13T10:20:12.187Z,11.72
2023-12-13T10:22:40.608Z,11.72
2023-12-13T10:25:08.559Z,11.59
2023-12-13T10:27:36.412Z,11.59
2023-12-13T10:30:05.441Z,11.60
2023-12-13T10:32:32.948Z,11.63
2023-12-13T10:35:03.762Z,11.60
2023-12-13T10:37:35.791Z,11.66
2023-12-13T10:40:07.385Z,11.64
2023-12-13T10:42:38.477Z,11.61
2023-12-13T10:45:07.007Z,11.57
2023-12-13T10:47:37.479Z,11.45
2023-12-13T10:50:06.687Z,11.52
2023-12-13T10:52:35.127Z,11.57
2023-12-13T10:55:02.365Z,11.61
2023-12-13T10:57:29.830Z,11.66
2023-12-13T10:59:57.302Z,11.69
2023-12-13T11:02:27.726Z,11.72
2023-12-13T11:04:55.311Z,11.75
2023-12-13T11:07:23.408Z,11.72
2023-12-13T11:09:55.687Z,11.68
2023-12-13T11:12:23.274Z,11.72
2023-12-13T11:14:54.375Z,11.77
2023-12-13T11:17:23.434Z,11.75
2023-12-13T11:19:53.800Z,11.76
2023-12-13T11:22:26.993Z,11.71
2023-12-13T11:25:04.564Z,11.77
2023-12-13T11:27:35.206Z,11.70
2023-12-13T11:30:16.159Z,11.79
2023-12-13T11:32:45.464Z,11.84
2023-12-13T11:35:18.789Z,11.88
2023-12-13T11:37:52.701Z,11.84
2023-12-13T11:40:20.300Z,11.90
2023-12-13T11:42:52.074Z,11.90
2023-12-13T11:45:22.778Z,11.94
2023-12-13T11:47:51.615Z,12.01
2023-12-13T11:50:21.340Z,12.08
2023-12-13T11:52:49.400Z,12.11
2023-12-13T11:55:24.534Z,12.13
2023-12-13T11:57:59.462Z,12.12
2023-12-13T12:00:26.707Z,12.10
2023-12-13T12:02:55.421Z,12.12
2023-12-13T12:05:24.842Z,12.03
2023-12-13T12:08:05.363Z,12.07
2023-12-13T12:10:33.080Z,12.03
2023-12-13T12:13:01.589Z,12.01
2023-12-13T12:15:28.970Z,12.09
2023-12-13T12:17:56.219Z,12.09
2023-12-13T12:20:25.232Z,12.09
2023-12-13T12:22:53.198Z,12.06
2023-12-13T12:25:23.822Z,12.12
2023-12-13T12:27:51.323Z,12.15
2023-12-13T12:30:19.404Z,12.13
2023-12-13T12:32:46.729Z,12.13
2023-12-13T12:35:14.009Z,12.11
2023-12-13T12:37:42.071Z,12.13
2023-12-13T12:40:10.171Z,12.14
2023-12-13T12:42:37.766Z,12.16
2023-12-13T12:45:08.072Z,12.15
2023-12-13T12:47:35.818Z,12.10
2023-12-13T12:50:04.140Z,12.10
2023-12-13T12:52:31.445Z,12.19
2023-12-13T12:54:58.634Z,12.13
2023-12-13T12:57:26.251Z,12.10
2023-12-13T12:59:53.478Z,12.01
2023-12-13T13:02:20.775Z,12.06
2023-12-13T13:04:48.404Z,11.98
2023-12-13T13:07:16.314Z,11.96
2023-12-13T13:09:43.479Z,12.07
2023-12-13T13:12:11.165Z,12.09
2023-12-13T13:14:39.364Z,12.12
2023-12-13T13:17:07.445Z,12.14
2023-12-13T13:19:34.664Z,12.13
2023-12-13T13:22:05.592Z,12.11
2023-12-13T13:24:35.568Z,12.10
2023-12-13T13:27:04.379Z,12.13
2023-12-13T13:29:33.646Z,12.12
2023-12-13T13:32:01.275Z,12.11
2023-12-13T13:34:28.458Z,12.00
2023-12-13T13:36:55.782Z,12.03
2023-12-13T13:39:23.150Z,11.94
2023-12-13T13:41:51.019Z,11.88
2023-12-13T13:44:18.405Z,11.93
2023-12-13T13:46:46.212Z,11.97
2023-12-13T13:49:13.437Z,12.07
2023-12-13T13:51:40.529Z,12.05
2023-12-13T13:54:08.273Z,12.01
2023-12-13T13:56:38.747Z,12.01
2023-12-13T13:59:07.105Z,11.97
2023-12-13T14:01:35.674Z,11.94
2023-12-13T14:04:03.034Z,11.90
2023-12-13T14:06:32.938Z,11.93
2023-12-13T14:09:00.375Z,11.90
2023-12-13T14:11:28.000Z,11.87
2023-12-13T14:13:55.219Z,11.86
2023-12-13T14:16:22.951Z,11.90
2023-12-13T14:18:50.322Z,11.87
2023-12-13T14:21:17.474Z,11.88
2023-12-13T14:23:46.915Z,11.85
2023-12-13T14:26:16.074Z,11.80
2023-12-13T14:28:43.526Z,11.84
2023-12-13T14:31:11.480Z,11.85
2023-12-13T14:33:38.666Z,11.86
2023-12-13T14:36:09.050Z,11.84
2023-12-13T14:38:38.768Z,11.83
2023-12-13T14:41:07.293Z,11.86
2023-12-13T14:43:35.732Z,11.88
2023-12-13T14:46:03.137Z,11.83
2023-12-13T14:48:30.497Z,11.77
2023-12-13T14:50:57.761Z,11.74
2023-12-13T14:53:24.902Z,11.79
2023-12-13T14:55:52.856Z,11.75
2023-12-13T14:58:20.043Z,11.76
2023-12-13T15:00:47.226Z,11.70
2023-12-13T15:03:14.705Z,11.63
2023-12-13T15:05:42.136Z,11.64
2023-12-13T15:08:10.149Z,11.64
2023-12-13T15:10:37.373Z,11.62
2023-12-13T15:13:08.743Z,11.65
2023-12-13T15:15:36.546Z,11.68
2023-12-13T15:18:03.944Z,11.63
2023-12-13T15:20:31.349Z,11.65
2023-12-13T15:22:58.708Z,11.67
2023-12-13T15:25:26.023Z,11.64
2023-12-13T15:27:53.308Z,11.65
2023-12-13T15:30:22.585Z,11.67
2023-12-13T15:32:49.887Z,11.65
2023-12-13T15:35:17.120Z,11.55
2023-12-13T15:37:44.390Z,11.55
2023-12-13T15:40:12.069Z,11.55
2023-12-13T15:42:39.336Z,11.57
2023-12-13T15:45:08.669Z,11.58
2023-12-13T15:47:37.905Z,11.55
2023-12-13T15:50:09.183Z,11.53
2023-12-13T15:52:42.175Z,11.51
2023-12-13T15:55:09.532Z,11.45
2023-12-13T15:57:36.685Z,11.36
2023-12-13T16:00:05.387Z,11.36
2023-12-13T16:02:32.615Z,11.42
2023-12-13T16:04:59.920Z,11.37
2023-12-13T16:07:27.167Z,11.38
2023-12-13T16:09:54.321Z,11.44
2023-12-13T16:12:22.305Z,11.34
2023-12-13T16:14:49.483Z,11.42
2023-12-13T16:17:16.581Z,11.33
2023-12-13T16:19:43.772Z,11.26
2023-12-13T16:22:10.937Z,11.26
2023-12-13T16:24:38.086Z,11.29
2023-12-13T16:27:05.939Z,11.29
2023-12-13T16:29:33.047Z,11.25
2023-12-13T16:32:00.551Z,11.14
2023-12-13T16:34:27.666Z,11.17
2023-12-13T16:36:54.875Z,11.07
2023-12-13T16:39:22.093Z,11.08
2023-12-13T16:41:49.427Z,11.01
2023-12-13T16:44:17.585Z,11.01
2023-12-13T16:46:45.157Z,11.12
2023-12-13T16:49:12.671Z,11.15
2023-12-13T16:51:40.318Z,11.24
2023-12-13T16:54:07.982Z,11.25
2023-12-13T16:56:36.101Z,11.26
2023-12-13T16:59:06.022Z,11.21
2023-12-13T17:01:33.364Z,11.26
2023-12-13T17:04:03.413Z,11.21
2023-12-13T17:06:31.477Z,11.21
2023-12-13T17:09:00.802Z,11.20
2023-12-13T17:11:29.504Z,11.18
2023-12-13T17:13:57.176Z,11.13
2023-12-13T17:16:25.166Z,11.14
2023-12-13T17:18:52.516Z,11.04
2023-12-13T17:21:19.697Z,11.01
2023-12-13T17:23:46.804Z,11.00
2023-12-13T17:26:14.827Z,11.02
2023-12-13T17:28:42.442Z,11.00
2023-12-13T17:31:09.953Z,11.07
2023-12-13T17:33:37.272Z,11.08
2023-12-13T17:36:05.367Z,11.01
2023-12-13T17:38:32.614Z,11.12
2023-12-13T17:41:00.053Z,11.09
2023-12-13T17:43:27.321Z,11.15
2023-12-13T17:45:54.526Z,11.09
2023-12-13T17:48:22.878Z,11.03
2023-12-13T17:50:50.286Z,11.03
2023-12-13T17:53:18.055Z,11.05
2023-12-13T17:55:46.175Z,11.11
2023-12-13T17:58:13.503Z,11.06
2023-12-13T18:00:40.944Z,11.03
2023-12-13T18:03:09.596Z,10.95
2023-12-13T18:05:37.048Z,11.03
2023-12-13T18:08:04.575Z,11.03
2023-12-13T18:10:32.064Z,11.05
2023-12-13T18:12:59.523Z,10.99
2023-12-13T18:15:26.716Z,10.99
2023-12-13T18:17:53.877Z,10.90
2023-12-13T18:20:21.173Z,10.94
2023-12-13T18:22:48.421Z,10.92
2023-12-13T18:25:15.570Z,10.93
2023-12-13T18:27:42.719Z,10.99
2023-12-13T18:30:10.021Z,10.92
2023-12-13T18:32:37.661Z,10.83
2023-12-13T18:35:05.459Z,10.95
2023-12-13T18:37:32.603Z,10.98
2023-12-13T18:39:59.740Z,10.93
2023-12-13T18:42:26.852Z,10.96
2023-12-13T18:44:54.769Z,10.95
2023-12-13T18:47:23.207Z,10.95
2023-12-13T18:49:51.228Z,10.95
2023-12-13T18:52:18.503Z,11.04
2023-12-13T18:54:45.688Z,11.01
2023-12-13T18:57:13.116Z,11.01
2023-12-13T18:59:40.903Z,11.03
2023-12-13T19:02:08.207Z,10.92
2023-12-13T19:04:36.221Z,10.90
2023-12-13T19:07:03.398Z,10.95
2023-12-13T19:09:32.847Z,10.87
2023-12-13T19:12:01.486Z,10.88
2023-12-13T19:14:28.783Z,10.89
2023-12-13T19:16:55.978Z,10.94
2023-12-13T19:19:23.726Z,10.99
2023-12-13T19:21:51.623Z,10.81
2023-12-13T19:24:18.946Z,10.91
2023-12-13T19:26:46.604Z,10.81
2023-12-13T19:29:16.629Z,10.85
2023-12-13T19:31:46.569Z,10.81
2023-12-13T19:34:22.804Z,10.71
2023-12-13T19:36:57.499Z,10.68
2023-12-13T19:39:24.679Z,10.83
2023-12-13T19:41:52.638Z,10.71
2023-12-13T19:44:19.759Z,10.70
2023-12-13T19:46:47.058Z,10.70
2023-12-13T19:49:14.373Z,10.47
2023-12-13T19:51:41.967Z,10.45
2023-12-13T19:54:10.019Z,10.42
2023-12-13T19:56:37.324Z,10.22
2023-12-13T19:59:07.211Z,10.33
2023-12-13T20:01:34.903Z,10.32
2023-12-13T20:04:02.213Z,10.21
2023-12-13T20:06:29.620Z,10.16
2023-12-13T20:08:56.856Z,10.09
2023-12-13T20:11:24.023Z,9.90
2023-12-13T20:13:56.453Z,9.93
2023-12-13T20:16:24.918Z,9.80
2023-12-13T20:18:52.477Z,9.89
2023-12-13T20:21:19.634Z,9.82
2023-12-13T20:23:46.790Z,9.86
2023-12-13T20:26:14.473Z,9.78
2023-12-13T20:28:41.924Z,9.87
2023-12-13T20:31:09.217Z,9.76
2023-12-13T20:33:36.450Z,9.82
2023-12-13T20:36:07.817Z,9.76
2023-12-13T20:38:35.047Z,9.60
2023-12-13T20:41:02.606Z,9.69
2023-12-13T20:43:29.773Z,9.61
2023-12-13T20:45:56.858Z,9.61
2023-12-13T20:48:24.051Z,9.48
2023-12-13T20:50:51.220Z,9.44
2023-12-13T20:53:18.333Z,9.44
2023-12-13T20:55:45.503Z,9.39
2023-12-13T20:58:12.607Z,9.27
2023-12-13T21:00:40.130Z,9.33
2023-12-13T21:03:07.477Z,9.21
2023-12-13T21:05:35.042Z,9.36
2023-12-13T21:08:02.359Z,9.36
2023-12-13T21:10:29.509Z,9.34
2023-12-13T21:12:56.662Z,8.94
2023-12-13T21:15:23.820Z,8.92
2023-12-13T21:17:51.231Z,8.87
2023-12-13T21:20:18.498Z,8.77
2023-12-13T21:22:46.152Z,8.68
2023-12-13T21:25:13.350Z,8.92
2023-12-13T21:27:40.521Z,8.82
2023-12-13T21:30:08.071Z,8.90
2023-12-13T21:32:35.671Z,8.76
2023-12-13T21:35:04.628Z,8.60
2023-12-13T21:37:31.909Z,8.46
2023-12-13T21:39:59.406Z,8.61
2023-12-13T21:42:26.816Z,8.26
2023-12-13T21:44:53.907Z,8.25
2023-12-13T21:47:22.313Z,7.87
2023-12-13T21:49:49.531Z,8.08
2023-12-13T21:52:19.296Z,7.89
2023-12-13T21:54:49.124Z,7.91
2023-12-13T21:57:16.352Z,7.85
2023-12-13T21:59:43.432Z,7.86
2023-12-13T22:02:10.712Z,8.03
2023-12-13T22:04:38.080Z,8.22
2023-12-13T22:07:05.195Z,8.24
2023-12-13T22:09:32.386Z,8.26
2023-12-13T22:11:59.495Z,8.24
2023-12-13T22:14:26.713Z,8.15
2023-12-13T22:16:54.265Z,8.15
2023-12-13T22:19:47.380Z,8.19
2023-12-13T22:22:16.276Z,8.08
2023-12-13T22:24:43.421Z,8.06
2023-12-13T22:27:10.582Z,8.03
2023-12-13T22:29:37.803Z,7.90
2023-12-13T22:32:06.035Z,7.95
2023-12-13T22:34:33.742Z,7.97
2023-12-13T22:37:00.923Z,7.96
2023-12-13T22:39:28.149Z,8.05
2023-12-13T22:41:55.278Z,7.81
2023-12-13T22:44:22.745Z,7.79
2023-12-13T22:46:49.947Z,7.90
2023-12-13T22:49:18.771Z,7.95
2023-12-13T22:52:18.358Z,8.01
2023-12-13T22:54:35.256Z,8.01
2023-12-13T22:57:02.424Z,7.93
2023-12-13T22:59:29.589Z,8.04
2023-12-13T23:01:58.678Z,8.01
2023-12-13T23:04:27.644Z,7.94
2023-12-13T23:06:54.776Z,7.87
2023-12-13T23:09:22.460Z,7.85
2023-12-13T23:11:49.577Z,7.63
2023-12-13T23:14:16.919Z,7.68
2023-12-13T23:16:44.153Z,7.84
2023-12-13T23:19:11.681Z,7.75
2023-12-13T23:21:38.910Z,7.81
2023-12-13T23:24:06.483Z,7.75
2023-12-13T23:26:33.560Z,7.81
2023-12-13T23:29:00.796Z,7.82
2023-12-13T23:31:33.653Z,7.87
2023-12-13T23:34:06.522Z,7.88
2023-12-13T23:36:34.869Z,7.72
2023-12-13T23:39:02.146Z,7.55
2023-12-13T23:41:29.269Z,7.70
2023-12-13T23:43:56.452Z,7.66
2023-12-13T23:46:23.668Z,7.62
2023-12-13T23:48:51.949Z,7.65
2023-12-13T23:51:19.356Z,7.80
2023-12-13T23:53:46.551Z,7.86
2023-12-13T23:56:23.958Z,7.70
2023-12-13T23:58:51.501Z,7.72
